Time;durP1;ratioP1;P1;durP2;ratioP2;P2;SDS_P1;SDS_P2;PMS_P1;PMS_P2;Temp;Humidity;BMP_temperature;BMP_pressure;BME280_temperature;BME280_humidity;BME280_pressure;Samples;Min_cycle;Max_cycle;Signal;HPM_P1;HPM_P2
2022/12/20 00:02:13;;;;;;;14.70;8.20;;;21.30;57.00;;;;;;211946;1316;23891;-41
2022/12/20 00:07:21;;;;;;;13.20;7.70;;;21.30;56.70;;;;;;211897;1297;23752;-41
2022/12/20 00:12:27;;;;;;;11.60;7.60;;;21.20;57.30;;;;;;211763;1299;218591;-40
2022/12/20 00:17:31;;;;;;;14.70;7.50;;;21.20;57.10;;;;;;211855;1316;25373;-40
2022/12/20 00:22:35;;;;;;;11.40;7.40;;;21.20;56.60;;;;;;211939;1308;24301;-42
2022/12/20 00:27:39;;;;;;;13.10;7.80;;;21.10;56.60;;;;;;211889;1316;24057;-43
2022/12/20 00:32:43;;;;;;;12.20;7.30;;;21.10;56.50;;;;;;211764;1316;25335;-43
2022/12/20 00:37:46;;;;;;;13.50;7.80;;;21.10;56.50;;;;;;211999;1316;23849;-40
2022/12/20 00:42:50;;;;;;;12.00;7.20;;;21.00;56.40;;;;;;211895;1312;26045;-41
2022/12/20 00:47:54;;;;;;;13.00;7.40;;;21.00;56.30;;;;;;211886;1310;25379;-42
2022/12/20 00:52:59;;;;;;;13.60;7.70;;;20.90;56.30;;;;;;211773;1316;25301;-40
2022/12/20 00:58:03;;;;;;;10.10;7.00;;;21.00;56.60;;;;;;211981;1301;22480;-41
2022/12/20 01:03:08;;;;;;;9.90;7.00;;;21.20;56.00;;;;;;211876;1300;25458;-41
2022/12/20 01:08:12;;;;;;;10.10;6.40;;;21.50;56.50;;;;;;211902;1293;24333;-40
2022/12/20 01:13:16;;;;;;;15.40;7.00;;;21.60;55.30;;;;;;211956;1309;23953;-41
2022/12/20 01:18:20;;;;;;;9.80;6.80;;;21.80;54.80;;;;;;211729;1316;23902;-41
2022/12/20 01:23:24;;;;;;;8.10;5.60;;;22.00;54.50;;;;;;211537;1317;25313;-41
2022/12/20 01:28:28;;;;;;;11.10;7.50;;;22.10;54.20;;;;;;211833;1294;22499;-43
2022/12/20 01:33:32;;;;;;;9.40;5.80;;;22.30;54.10;;;;;;211783;1300;22946;-41
2022/12/20 01:38:35;;;;;;;10.80;6.20;;;22.30;53.80;;;;;;211862;1302;22723;-40
2022/12/20 01:43:47;;;;;;;9.70;6.50;;;22.40;53.30;;;;;;211762;1312;24409;-40
2022/12/20 01:48:56;;;;;;;9.20;5.90;;;22.40;53.00;;;;;;211732;1299;24199;-41
2022/12/20 01:54:14;;;;;;;9.00;5.80;;;22.40;52.80;;;;;;211808;1299;25739;-41
2022/12/20 01:59:19;;;;;;;10.70;6.80;;;22.50;52.60;;;;;;211848;1293;22678;-41
2022/12/20 02:04:25;;;;;;;9.30;6.40;;;22.50;52.50;;;;;;211619;1302;22739;-41
2022/12/20 02:09:33;;;;;;;9.40;5.60;;;22.60;52.40;;;;;;211925;1300;25263;-42
2022/12/20 02:15:09;;;;;;;8.80;6.00;;;22.60;52.20;;;;;;211956;1309;23900;-42
2022/12/20 02:20:24;;;;;;;8.20;5.50;;;22.60;52.10;;;;;;211873;1312;22579;-40
2022/12/20 02:25:51;;;;;;;10.40;6.10;;;22.60;52.00;;;;;;211788;1302;25585;-40
2022/12/20 02:30:56;;;;;;;8.10;5.50;;;22.60;51.90;;;;;;211587;1314;25553;-42
2022/12/20 02:36:03;;;;;;;8.80;5.60;;;22.60;51.90;;;;;;211804;1297;22632;-40
2022/12/20 02:41:31;;;;;;;9.90;6.10;;;22.60;51.30;;;;;;211797;1310;24034;-43
2022/12/20 02:46:37;;;;;;;8.30;6.20;;;22.70;51.70;;;;;;212113;1310;22496;-42
2022/12/20 02:51:43;;;;;;;7.90;5.90;;;22.70;51.90;;;;;;211857;1301;22475;-41
2022/12/20 02:56:55;;;;;;;7.80;5.60;;;22.80;51.40;;;;;;211942;1302;23340;-41
2022/12/20 03:02:00;;;;;;;8.10;5.90;;;22.80;51.20;;;;;;211895;1311;25356;-40
2022/12/20 03:07:10;;;;;;;7.70;5.40;;;22.70;51.20;;;;;;211907;1303;22523;-42
2022/12/20 03:12:15;;;;;;;7.90;5.30;;;22.60;51.40;;;;;;211979;1303;25825;-44
2022/12/20 03:17:19;;;;;;;8.00;5.70;;;22.50;51.40;;;;;;211808;1316;23861;-41
2022/12/20 03:22:22;;;;;;;10.90;6.00;;;22.40;51.50;;;;;;211898;1318;25376;-41
2022/12/20 03:27:27;;;;;;;8.50;5.70;;;22.30;51.70;;;;;;211946;1299;22483;-42
2022/12/20 03:32:31;;;;;;;8.70;5.80;;;22.30;52.30;;;;;;211965;1310;22483;-40
2022/12/20 03:37:35;;;;;;;8.10;6.20;;;22.20;51.90;;;;;;212155;1295;25528;-41
2022/12/20 03:42:40;;;;;;;8.70;6.10;;;22.00;52.10;;;;;;212009;1310;25517;-41
2022/12/20 03:47:44;;;;;;;7.90;5.50;;;22.00;52.20;;;;;;211969;1302;22829;-43
2022/12/20 03:52:48;;;;;;;7.80;5.70;;;21.90;52.40;;;;;;211953;1315;25446;-43
2022/12/20 03:57:52;;;;;;;8.50;6.10;;;21.80;52.50;;;;;;211926;1315;25402;-41
2022/12/20 04:03:00;;;;;;;8.60;5.80;;;21.80;52.60;;;;;;211898;1317;25434;-42
2022/12/20 04:08:05;;;;;;;8.30;5.60;;;21.70;52.60;;;;;;212108;1310;25453;-40
2022/12/20 04:13:12;;;;;;;7.50;5.70;;;21.60;52.70;;;;;;212055;1301;22457;-43
2022/12/20 04:18:18;;;;;;;8.60;5.90;;;21.60;52.70;;;;;;212172;1302;25423;-40
2022/12/20 04:23:22;;;;;;;7.60;5.60;;;21.50;52.80;;;;;;212084;1310;26530;-39
2022/12/20 04:28:27;;;;;;;8.20;6.20;;;21.40;52.80;;;;;;212076;1309;22452;-41
2022/12/20 04:33:31;;;;;;;8.10;5.90;;;21.40;52.80;;;;;;212018;1287;23662;-41
2022/12/20 04:38:36;;;;;;;8.90;6.00;;;21.30;52.80;;;;;;212094;1303;23596;-41
2022/12/20 04:43:39;;;;;;;11.10;5.40;;;21.30;52.90;;;;;;212043;1303;22708;-41
2022/12/20 04:48:44;;;;;;;7.10;5.90;;;21.20;52.90;;;;;;212093;1300;24267;-41
2022/12/20 04:53:59;;;;;;;7.10;5.20;;;21.20;53.00;;;;;;212082;1317;22714;-41
2022/12/20 04:59:13;;;;;;;6.90;5.00;;;21.30;52.90;;;;;;212126;1317;25035;-41
2022/12/20 05:04:18;;;;;;;8.30;5.40;;;21.40;52.80;;;;;;212089;1301;24255;-41
2022/12/20 05:09:22;;;;;;;8.50;5.50;;;21.60;52.60;;;;;;211625;1307;24197;-43
2022/12/20 05:14:30;;;;;;;8.60;5.30;;;21.80;52.20;;;;;;212049;1316;25358;-41
2022/12/20 05:19:37;;;;;;;7.90;4.70;;;22.00;52.00;;;;;;211887;1297;22601;-42
2022/12/20 05:30:11;;;;;;;8.20;6.00;;;22.30;51.70;;;;;;211957;1316;24212;-41
2022/12/20 05:35:16;;;;;;;7.20;5.00;;;22.30;51.10;;;;;;211964;1316;25479;-42
2022/12/20 05:40:22;;;;;;;7.10;5.10;;;22.40;51.00;;;;;;211839;1310;24270;-39
2022/12/20 05:45:29;;;;;;;7.00;5.30;;;22.50;50.70;;;;;;211511;1293;22536;-43
2022/12/20 05:50:38;;;;;;;6.30;4.40;;;22.50;51.00;;;;;;211927;1309;24293;-42
2022/12/20 05:56:00;;;;;;;7.80;5.30;;;22.50;50.50;;;;;;211992;1316;24237;-58
2022/12/20 06:01:07;;;;;;;7.30;5.80;;;22.60;50.40;;;;;;212078;1313;22724;-54
2022/12/20 06:06:12;;;;;;;7.00;4.50;;;22.60;50.30;;;;;;211911;1310;25208;-58
2022/12/20 06:11:20;;;;;;;9.30;5.20;;;22.60;50.20;;;;;;211916;1300;26040;-55
2022/12/20 06:16:45;;;;;;;9.50;5.30;;;22.60;50.10;;;;;;211963;1310;25266;-56
2022/12/20 06:21:57;;;;;;;6.70;4.70;;;22.70;50.10;;;;;;211999;1310;22701;-57
2022/12/20 06:27:42;;;;;;;8.30;5.30;;;22.70;50.30;;;;;;211471;1311;24271;-58
2022/12/20 06:32:48;;;;;;;7.60;5.10;;;22.70;50.10;;;;;;211888;1318;24212;-52
2022/12/20 06:37:52;;;;;;;7.30;5.60;;;22.70;50.00;;;;;;212025;1310;25379;-58
2022/12/20 06:42:57;;;;;;;7.20;5.10;;;22.80;50.00;;;;;;211981;1310;23887;-54
2022/12/20 06:48:01;;;;;;;8.70;5.40;;;22.80;49.80;;;;;;211730;1300;25442;-56
2022/12/20 06:53:12;;;;;;;8.30;5.20;;;22.80;49.80;;;;;;212056;1299;25553;-59
2022/12/20 06:58:19;;;;;;;6.90;5.20;;;22.80;50.60;;;;;;212140;1316;22955;-58
2022/12/20 07:03:24;;;;;;;9.30;5.00;;;22.70;50.70;;;;;;212007;1304;24090;-57
2022/12/20 07:08:28;;;;;;;10.00;5.90;;;22.80;50.80;;;;;;211945;1310;24442;-53
2022/12/20 07:13:33;;;;;;;13.70;5.90;;;22.80;51.20;;;;;;212034;1310;25772;-58
2022/12/20 07:18:36;;;;;;;11.50;5.50;;;22.80;51.10;;;;;;212142;1296;23269;-56
2022/12/20 07:23:40;;;;;;;9.10;5.30;;;22.90;51.80;;;;;;212068;1313;23863;-57
2022/12/20 07:28:49;;;;;;;9.40;5.40;;;22.90;51.90;;;;;;212078;1311;23881;-52
2022/12/20 07:33:56;;;;;;;11.60;6.00;;;22.90;52.10;;;;;;212009;1299;24976;-58
2022/12/20 07:39:00;;;;;;;10.50;6.30;;;22.90;51.70;;;;;;212191;1303;23352;-51
2022/12/20 07:44:05;;;;;;;8.60;6.00;;;22.80;52.00;;;;;;212062;1309;25411;-54
2022/12/20 07:49:09;;;;;;;11.80;6.50;;;22.70;51.70;;;;;;211993;1299;22880;-56
2022/12/20 07:54:19;;;;;;;13.30;6.70;;;22.60;51.60;;;;;;211982;1300;24255;-53
2022/12/20 07:59:28;;;;;;;19.50;8.00;;;22.50;51.90;;;;;;212100;1300;24024;-58
2022/12/20 08:04:33;;;;;;;11.20;6.80;;;22.40;51.90;;;;;;211870;1312;24518;-55
2022/12/20 08:09:40;;;;;;;10.90;6.50;;;22.30;51.60;;;;;;217355;1306;22521;-58
2022/12/20 08:14:51;;;;;;;12.10;7.00;;;22.20;51.70;;;;;;216610;1308;25955;-56
2022/12/20 08:19:56;;;;;;;12.30;7.60;;;22.10;51.60;;;;;;212314;1300;22468;-58
2022/12/20 08:25:00;;;;;;;14.40;9.40;;;22.00;51.60;;;;;;212051;1318;22490;-57
2022/12/20 08:30:07;;;;;;;12.40;8.70;;;21.80;49.60;;;;;;212104;1306;22648;-53
2022/12/20 08:35:11;;;;;;;13.70;8.10;;;21.70;50.50;;;;;;212036;1313;23085;-56
2022/12/20 08:40:15;;;;;;;12.10;8.60;;;21.70;50.20;;;;;;212464;1303;22592;-57
2022/12/20 08:45:20;;;;;;;11.80;9.00;;;21.60;50.20;;;;;;212027;1295;22529;-53
2022/12/20 08:50:25;;;;;;;17.10;9.00;;;21.50;50.30;;;;;;212081;1310;22617;-57
2022/12/20 08:55:29;;;;;;;13.20;8.90;;;21.40;50.20;;;;;;212019;1316;22494;-54
2022/12/20 09:00:33;;;;;;;13.20;8.50;;;21.40;50.50;;;;;;213226;1297;22509;-58
2022/12/20 09:05:43;;;;;;;14.80;8.30;;;21.30;50.70;;;;;;215505;1295;22546;-56
2022/12/20 09:10:47;;;;;;;12.30;8.70;;;21.30;51.10;;;;;;212030;1312;25378;-57
2022/12/20 09:15:51;;;;;;;13.20;8.00;;;21.30;51.20;;;;;;212015;1301;25153;-54
2022/12/20 09:20:58;;;;;;;11.40;7.00;;;21.40;51.20;;;;;;212152;1310;25287;-58
2022/12/20 09:26:04;;;;;;;10.50;7.20;;;21.70;50.90;;;;;;212130;1301;25222;-56
2022/12/20 09:31:12;;;;;;;9.80;7.00;;;21.80;50.70;;;;;;212242;1290;22435;-54
2022/12/20 09:36:21;;;;;;;10.50;7.20;;;21.90;50.70;;;;;;212098;1287;22721;-60
2022/12/20 09:41:33;;;;;;;10.40;7.40;;;22.10;50.30;;;;;;212054;1307;22523;-57
2022/12/20 09:46:39;;;;;;;10.50;6.80;;;22.20;50.10;;;;;;211965;1309;25288;-57
2022/12/20 09:52:15;;;;;;;11.00;7.20;;;22.30;49.90;;;;;;212093;1301;24148;-59
2022/12/20 09:57:51;;;;;;;11.80;7.80;;;22.40;49.80;;;;;;211907;1309;22549;-58
2022/12/20 10:02:55;;;;;;;11.20;7.10;;;22.40;49.70;;;;;;212070;1311;22519;-55
2022/12/20 10:08:51;;;;;;;12.90;7.50;;;22.50;50.20;;;;;;212045;1296;24271;-59
2022/12/20 10:14:25;;;;;;;9.80;6.90;;;22.50;49.60;;;;;;211881;1302;22558;-56
2022/12/20 10:20:05;;;;;;;10.50;7.20;;;22.60;50.00;;;;;;212168;1297;24812;-58
2022/12/20 10:25:16;;;;;;;;;;;22.60;49.60;;;;;;212198;1310;22565;-53
2022/12/20 10:30:23;;;;;;;8.60;6.60;;;22.70;49.60;;;;;;212110;1312;24283;-46
2022/12/20 10:35:30;;;;;;;10.40;7.10;;;22.70;49.60;;;;;;212051;1302;25369;-55
2022/12/20 10:40:38;;;;;;;10.20;7.20;;;22.70;49.60;;;;;;212188;1290;22648;-57
2022/12/20 10:46:07;;;;;;;10.70;7.10;;;22.80;49.70;;;;;;212129;1301;28502;-56
2022/12/20 10:51:21;;;;;;;9.10;6.90;;;22.80;49.60;;;;;;212159;1304;24250;-53
2022/12/20 10:56:32;;;;;;;9.50;6.80;;;22.80;49.70;;;;;;212214;1287;22492;-52
2022/12/20 11:01:43;;;;;;;8.80;6.40;;;22.90;49.50;;;;;;212237;1298;22594;-57
2022/12/20 11:06:47;;;;;;;10.80;7.20;;;22.90;49.70;;;;;;212092;1296;22554;-51
2022/12/20 11:12:26;;;;;;;12.00;6.90;;;23.00;50.30;;;;;;211969;1310;25187;-57
2022/12/20 11:17:47;;;;;;;10.90;7.20;;;23.00;49.80;;;;;;212079;1309;22500;-58
2022/12/20 11:22:55;;;;;;;12.00;6.80;;;22.90;49.70;;;;;;211921;1318;25366;-55
2022/12/20 11:28:20;;;;;;;12.20;7.20;;;22.90;49.70;;;;;;212106;1299;23336;-58
2022/12/20 11:34:19;;;;;;;11.00;7.30;;;22.70;49.70;;;;;;212231;1303;23238;-59
2022/12/20 11:39:32;;;;;;;11.10;7.60;;;22.70;48.60;;;;;;211151;1313;24170;-59
2022/12/20 11:44:45;;;;;;;11.80;7.60;;;22.60;49.40;;;;;;210843;1305;25339;-57
2022/12/20 11:50:11;;;;;;;10.40;7.50;;;22.50;49.50;;;;;;210704;1299;24057;-59
2022/12/20 11:55:23;;;;;;;9.90;7.80;;;22.50;49.60;;;;;;210726;1305;24795;-59
2022/12/20 12:00:28;;;;;;;11.80;8.20;;;22.40;49.70;;;;;;211041;1299;22534;-61
2022/12/20 12:05:53;;;;;;;11.30;8.20;;;22.30;50.20;;;;;;211121;1311;22510;-59
2022/12/20 12:11:05;;;;;;;10.10;7.70;;;22.30;49.90;;;;;;211861;1317;24317;-58
2022/12/20 12:16:19;;;;;;;12.90;7.60;;;22.20;50.30;;;;;;212033;1307;193291;-57
2022/12/20 12:21:34;;;;;;;11.00;7.40;;;22.00;50.50;;;;;;212143;1316;22487;-60
2022/12/20 12:26:42;;;;;;;10.20;7.00;;;22.00;50.60;;;;;;211970;1315;23865;-59
2022/12/20 12:32:16;;;;;;;11.10;7.70;;;21.90;50.60;;;;;;212138;1315;22546;-60
2022/12/20 12:37:50;;;;;;;10.30;7.30;;;21.90;50.80;;;;;;211738;1303;24326;-57
2022/12/20 12:43:35;;;;;;;10.10;8.10;;;21.80;50.90;;;;;;211979;1303;24609;-59
2022/12/20 12:48:39;;;;;;;10.30;7.40;;;21.70;51.00;;;;;;211807;1302;24346;-56
2022/12/20 12:53:52;;;;;;;11.10;7.60;;;21.60;51.10;;;;;;211835;1315;26497;-58
2022/12/20 12:59:20;;;;;;;9.70;7.00;;;21.60;51.10;;;;;;212189;1300;24011;-58
2022/12/20 13:04:25;;;;;;;12.20;8.30;;;21.60;51.30;;;;;;212247;1310;22640;-57
2022/12/20 13:09:29;;;;;;;10.00;7.30;;;21.50;51.20;;;;;;212152;1316;25305;-57
2022/12/20 13:14:51;;;;;;;10.10;7.60;;;21.50;51.20;;;;;;212285;1315;22604;-57
2022/12/20 13:19:57;;;;;;;10.60;7.80;;;21.40;51.30;;;;;;212256;1300;22613;-56
2022/12/20 13:25:02;;;;;;;11.00;7.80;;;21.40;51.30;;;;;;212153;1302;22478;-58
2022/12/20 13:30:06;;;;;;;10.00;7.60;;;21.30;51.20;;;;;;212099;1299;22493;-58
2022/12/20 13:35:26;;;;;;;11.50;8.20;;;21.30;51.60;;;;;;212266;1313;23894;-59
2022/12/20 13:40:59;;;;;;;11.40;8.20;;;21.30;51.30;;;;;;212183;1302;22484;-57
2022/12/20 13:46:18;;;;;;;10.70;8.00;;;21.50;50.70;;;;;;211860;1309;22473;-60
2022/12/20 13:51:26;;;;;;;10.10;7.10;;;21.80;49.80;;;;;;212131;1306;22474;-51
2022/12/20 13:56:41;;;;;;;11.80;8.10;;;22.10;49.40;;;;;;212145;1305;22501;-58
2022/12/20 14:01:53;;;;;;;10.40;7.40;;;22.20;49.40;;;;;;212152;1317;25365;-57
2022/12/20 14:07:01;;;;;;;10.70;7.50;;;22.30;48.80;;;;;;212217;1302;22865;-59
2022/12/20 14:12:13;;;;;;;10.40;7.80;;;22.40;49.00;;;;;;212128;1307;22539;-59
2022/12/20 14:17:32;;;;;;;9.90;6.90;;;22.50;48.90;;;;;;212140;1302;22615;-57
2022/12/20 14:22:36;;;;;;;10.30;7.20;;;22.60;48.40;;;;;;212117;1296;22481;-60
2022/12/20 14:27:40;;;;;;;9.30;7.30;;;22.60;48.70;;;;;;212115;1315;25486;-59
2022/12/20 14:32:48;;;;;;;9.40;7.20;;;22.70;48.20;;;;;;212168;1303;22728;-58
2022/12/20 14:38:03;;;;;;;9.80;7.50;;;22.70;48.20;;;;;;211980;1304;22483;-59
2022/12/20 14:43:27;;;;;;;12.70;7.90;;;22.70;48.40;;;;;;212128;1317;25274;-58
2022/12/20 14:48:31;;;;;;;9.60;7.30;;;22.90;47.90;;;;;;212063;1311;22705;-57
2022/12/20 14:53:38;;;;;;;10.40;7.50;;;22.80;48.00;;;;;;212082;1308;23019;-58
2022/12/20 14:58:41;;;;;;;9.90;7.10;;;22.70;48.20;;;;;;212104;1315;23721;-57
2022/12/20 15:03:56;;;;;;;10.00;6.90;;;22.80;48.30;;;;;;212123;1308;24058;-59
2022/12/20 15:09:00;;;;;;;11.30;8.70;;;22.90;48.10;;;;;;212041;1295;22488;-58
2022/12/20 15:14:26;;;;;;;12.40;8.20;;;22.80;46.90;;;;;;212156;1302;22525;-60
2022/12/20 15:19:32;;;;;;;12.60;9.20;;;22.80;47.30;;;;;;212057;1297;25466;-58
2022/12/20 15:24:42;;;;;;;11.30;7.30;;;22.80;47.40;;;;;;212130;1300;22743;-56
2022/12/20 15:29:48;;;;;;;13.70;9.20;;;22.90;47.40;;;;;;212075;1306;22501;-55
2022/12/20 15:34:56;;;;;;;11.70;8.10;;;22.90;48.30;;;;;;212174;1296;24297;-51
2022/12/20 15:40:08;;;;;;;12.60;8.60;;;22.80;48.30;;;;;;211790;1312;23887;-52
2022/12/20 15:45:26;;;;;;;11.90;8.30;;;22.70;48.80;;;;;;211705;1302;22640;-53
2022/12/20 15:50:44;;;;;;;12.10;8.00;;;22.70;49.50;;;;;;212000;1302;22614;-55
2022/12/20 15:55:56;;;;;;;12.60;8.40;;;22.80;49.40;;;;;;212147;1301;24837;-55
2022/12/20 16:01:57;;;;;;;24.90;12.60;;;22.80;50.30;;;;;;211278;1310;24259;-58
2022/12/20 16:07:11;;;;;;;34.30;15.50;;;22.90;50.10;;;;;;211830;1312;22581;-53
2022/12/20 16:12:24;;;;;;;37.60;15.90;;;23.00;50.30;;;;;;211103;1312;22512;-58
2022/12/20 16:17:30;;;;;;;38.80;15.90;;;23.10;50.20;;;;;;211287;1303;24250;-55
2022/12/20 16:22:41;;;;;;;33.90;15.40;;;23.10;50.00;;;;;;210860;1305;24357;-59
2022/12/20 16:27:47;;;;;;;33.60;14.50;;;23.00;50.40;;;;;;211252;1306;24520;-59
2022/12/20 16:32:53;;;;;;;41.40;13.80;;;22.90;51.20;;;;;;211374;1319;25484;-55
2022/12/20 16:38:02;;;;;;;29.40;13.80;;;22.90;51.70;;;;;;211915;1309;22494;-54
2022/12/20 16:43:30;;;;;;;31.90;13.10;;;22.90;51.70;;;;;;211887;1301;24424;-58
2022/12/20 16:48:46;;;;;;;34.50;12.70;;;22.80;52.00;;;;;;211856;1297;22522;-58
2022/12/20 16:54:13;;;;;;;26.40;13.00;;;22.80;52.20;;;;;;211760;1299;23106;-57
2022/12/20 16:59:24;;;;;;;27.10;11.40;;;22.70;52.00;;;;;;212086;1303;22496;-60
2022/12/20 17:04:29;;;;;;;23.60;12.80;;;22.60;52.10;;;;;;212020;1305;22676;-56
2022/12/20 17:09:35;;;;;;;33.40;12.60;;;22.50;51.50;;;;;;212046;1301;22645;-56
2022/12/20 17:14:59;;;;;;;25.40;11.80;;;22.40;51.50;;;;;;212218;1304;22526;-58
2022/12/20 17:20:11;;;;;;;22.40;12.70;;;22.40;53.70;;;;;;211998;1309;22596;-60
2022/12/20 17:25:39;;;;;;;36.80;26.20;;;22.40;54.70;;;;;;211961;1307;22494;-58
2022/12/20 17:31:04;;;;;;;72.10;42.50;;;22.30;53.70;;;;;;212208;1303;23410;-57
2022/12/20 17:36:11;;;;;;;60.60;39.50;;;22.30;54.10;;;;;;211577;1299;22543;-59
2022/12/20 17:41:32;;;;;;;55.40;34.50;;;22.20;54.00;;;;;;213337;1296;23161;-57
2022/12/20 17:46:36;;;;;;;58.60;35.60;;;22.20;53.70;;;;;;212240;1302;22532;-55
2022/12/20 17:51:50;;;;;;;60.60;36.00;;;22.00;53.50;;;;;;211926;1305;23083;-58
2022/12/20 17:56:56;;;;;;;53.50;32.90;;;22.00;53.60;;;;;;211966;1318;24024;-56
2022/12/20 18:02:10;;;;;;;56.80;33.80;;;22.00;53.10;;;;;;211823;1309;24638;-54
2022/12/20 18:07:14;;;;;;;57.70;34.00;;;22.00;54.20;;;;;;211898;1311;22504;-62
2022/12/20 18:12:19;;;;;;;54.50;32.60;;;22.00;53.30;;;;;;211960;1316;24255;-60
2022/12/20 18:17:23;;;;;;;50.60;31.00;;;22.00;54.30;;;;;;212023;1315;22604;-61
2022/12/20 18:22:27;;;;;;;53.00;33.60;;;21.90;53.90;;;;;;212140;1310;23911;-60
2022/12/20 18:27:36;;;;;;;50.40;31.00;;;21.80;53.70;;;;;;211751;1295;22630;-58
2022/12/20 18:32:40;;;;;;;51.80;31.30;;;21.80;53.80;;;;;;211481;1303;25628;-58
2022/12/20 18:37:46;;;;;;;49.80;28.30;;;21.70;53.40;;;;;;211831;1298;25389;-59
2022/12/20 18:42:51;;;;;;;48.90;29.40;;;21.80;54.10;;;;;;211734;1300;22489;-57
2022/12/20 18:47:56;;;;;;;47.70;28.70;;;21.80;54.40;;;;;;211773;1297;24315;-58
2022/12/20 18:53:00;;;;;;;42.00;27.80;;;21.70;53.40;;;;;;211850;1301;22883;-57
2022/12/20 18:58:04;;;;;;;43.40;26.00;;;21.60;53.60;;;;;;212089;1298;22552;-61
2022/12/20 19:03:08;;;;;;;36.70;23.90;;;21.60;52.20;;;;;;211995;1301;22764;-59
2022/12/20 19:08:12;;;;;;;36.50;23.50;;;21.60;52.20;;;;;;212029;1292;22519;-56
2022/12/20 19:13:17;;;;;;;57.40;26.90;;;21.50;52.70;;;;;;211723;1315;23908;-60
2022/12/20 19:18:21;;;;;;;34.60;23.20;;;21.80;50.50;;;;;;211815;1294;24354;-60
2022/12/20 19:23:26;;;;;;;37.90;23.40;;;21.60;51.30;;;;;;211986;1297;25224;-56
2022/12/20 19:28:30;;;;;;;34.40;22.00;;;21.40;52.50;;;;;;213213;1317;24402;-58
2022/12/20 19:33:42;;;;;;;35.10;23.20;;;21.40;52.70;;;;;;212057;1310;25402;-61
2022/12/20 19:39:19;;;;;;;37.20;21.50;;;21.30;52.70;;;;;;212008;1317;25391;-60
2022/12/20 19:44:24;;;;;;;33.70;21.20;;;21.30;52.60;;;;;;212023;1304;22787;-60
2022/12/20 19:49:31;;;;;;;30.20;19.80;;;21.30;52.60;;;;;;211933;1287;22551;-60
2022/12/20 19:54:52;;;;;;;32.70;20.30;;;21.20;52.60;;;;;;211938;1300;24312;-60
2022/12/20 20:00:00;;;;;;;;;;;21.20;52.60;;;;;;212031;1306;22474;-60
2022/12/20 20:05:45;;;;;;;28.40;19.30;;;21.10;52.50;;;;;;212052;1310;22475;-60
2022/12/20 20:11:08;;;;;;;35.50;20.00;;;21.20;53.10;;;;;;212007;1315;24091;-59
2022/12/20 20:16:36;;;;;;;27.80;17.40;;;21.50;52.00;;;;;;211716;1317;24252;-60
2022/12/20 20:22:01;;;;;;;27.90;18.50;;;21.70;51.80;;;;;;212157;1317;25304;-59
2022/12/20 20:27:11;;;;;;;26.20;17.60;;;21.90;50.80;;;;;;212129;1299;22602;-60
2022/12/20 20:32:30;;;;;;;30.50;18.50;;;21.90;50.50;;;;;;211924;1296;24343;-59
2022/12/20 20:37:41;;;;;;;39.50;17.10;;;21.90;50.50;;;;;;211980;1299;24256;-61
2022/12/20 20:42:47;;;;;;;27.80;16.70;;;22.00;52.30;;;;;;211955;1299;22471;-60
2022/12/20 20:47:53;;;;;;;26.40;17.00;;;22.20;51.80;;;;;;211973;1306;22477;-57
2022/12/20 20:53:08;;;;;;;28.30;16.40;;;22.40;51.40;;;;;;211966;1310;22749;-58
2022/12/20 20:58:15;;;;;;;25.60;17.00;;;22.50;51.10;;;;;;211793;1305;26488;-62
2022/12/20 21:03:27;;;;;;;27.90;15.80;;;22.70;51.10;;;;;;211523;1314;24281;-60
2022/12/20 21:08:46;;;;;;;21.80;15.20;;;22.70;50.70;;;;;;211929;1309;22492;-57
2022/12/20 21:14:10;;;;;;;23.80;15.90;;;22.70;50.70;;;;;;211729;1313;23855;-59
2022/12/20 21:19:18;;;;;;;25.90;15.70;;;22.80;50.40;;;;;;211991;1306;22843;-57
2022/12/20 21:24:23;;;;;;;25.20;15.60;;;22.90;50.80;;;;;;211937;1309;22722;-60
2022/12/20 21:29:27;;;;;;;24.10;16.40;;;22.90;49.60;;;;;;212146;1309;25376;-59
2022/12/20 21:34:30;;;;;;;26.40;14.20;;;22.90;49.40;;;;;;212002;1296;22473;-60
2022/12/20 21:39:37;;;;;;;26.20;14.90;;;22.90;49.80;;;;;;211949;1296;22966;-61
2022/12/20 21:44:42;;;;;;;20.40;13.90;;;22.90;49.80;;;;;;211944;1297;22496;-60
2022/12/20 21:49:47;;;;;;;22.30;14.10;;;22.90;49.50;;;;;;211889;1315;25529;-62
2022/12/20 21:54:57;;;;;;;20.00;14.40;;;23.00;49.40;;;;;;211984;1299;22535;-60
2022/12/20 22:00:00;;;;;;;23.00;13.70;;;23.00;49.40;;;;;;211487;1310;22640;-61
2022/12/20 22:05:18;;;;;;;20.70;14.90;;;23.00;49.60;;;;;;211624;1295;22531;-60
2022/12/20 22:10:26;;;;;;;21.50;13.70;;;23.00;49.70;;;;;;211780;1317;22482;-60
2022/12/20 22:15:31;;;;;;;20.70;12.90;;;23.00;50.30;;;;;;212167;1303;22542;-59
2022/12/20 22:20:35;;;;;;;18.90;12.50;;;22.90;51.20;;;;;;212130;1300;22490;-61
2022/12/20 22:25:40;;;;;;;21.70;11.90;;;22.80;50.80;;;;;;212170;1296;25034;-60
2022/12/20 22:30:44;;;;;;;21.80;11.90;;;22.70;55.20;;;;;;211947;1315;23896;-57
2022/12/20 22:35:47;;;;;;;20.60;12.70;;;22.70;54.90;;;;;;211968;1300;25485;-59
2022/12/20 22:40:57;;;;;;;18.20;11.90;;;22.60;55.00;;;;;;212088;1315;22482;-60
2022/12/20 22:46:01;;;;;;;22.50;12.90;;;22.50;54.30;;;;;;212011;1296;25619;-60
2022/12/20 22:51:26;;;;;;;19.40;13.10;;;22.50;54.40;;;;;;211991;1310;22488;-60
2022/12/20 22:56:30;;;;;;;17.10;10.90;;;22.40;54.60;;;;;;212123;1292;22482;-57
2022/12/20 23:01:34;;;;;;;21.40;12.40;;;22.40;55.00;;;;;;212188;1301;25305;-58
2022/12/20 23:06:38;;;;;;;16.80;11.30;;;22.30;54.90;;;;;;212026;1317;26564;-59
2022/12/20 23:17:08;;;;;;;17.10;11.40;;;22.20;55.90;;;;;;211984;1299;24259;-58
2022/12/20 23:27:38;;;;;;;15.20;11.00;;;22.40;54.80;;;;;;212020;1310;24260;-58
2022/12/20 23:32:43;;;;;;;15.30;10.20;;;22.20;55.00;;;;;;212092;1302;24257;-58
2022/12/20 23:37:48;;;;;;;16.20;10.10;;;22.20;55.10;;;;;;212053;1297;24242;-59
2022/12/20 23:42:53;;;;;;;17.20;11.20;;;22.10;55.10;;;;;;211867;1317;25486;-58
2022/12/20 23:47:57;;;;;;;14.40;9.80;;;22.00;55.20;;;;;;211963;1301;26664;-58
2022/12/20 23:53:01;;;;;;;16.40;9.80;;;21.90;55.20;;;;;;211915;1312;22747;-59
2022/12/20 23:58:04;;;;;;;19.00;10.60;;;21.90;55.90;;;;;;212060;1299;22654;-61
